Terminal Aerodrome Forecast
Issued by NWS Austin/San Antonio, TX

Current Version | Previous Version | Text Only | Print | Product List | Glossary Off
Versions: 1 2 3 4 5 6 7 8 9 10 11 12 13 14 15 16 17

000
FTUS44 KEWX 272320
TAFDRT
TAF
KDRT 272320Z 2800/2824 10010KT P6SM VCSH SCT070
     FM280200 10007KT P6SM SCT250
     FM280800 10005KT P6SM BKN018
     FM281700 14008KT P6SM SCT040=

USA.gov is the U.S. government's official web portal to all federal, state and local government web resources and services.